sensor_id;sensor_type;location;lat;lon;timestamp;temperature;humidity
49222;DHT22;35047;37.588;-122.048;2023-11-21T00:01:58;25.50;35.80
49222;DHT22;35047;37.588;-122.048;2023-11-21T00:04:25;25.50;36.90
49222;DHT22;35047;37.588;-122.048;2023-11-21T00:06:51;25.50;37.20
49222;DHT22;35047;37.588;-122.048;2023-11-21T00:09:18;25.30;36.80
49222;DHT22;35047;37.588;-122.048;2023-11-21T00:11:45;25.30;37.00
49222;DHT22;35047;37.588;-122.048;2023-11-21T00:14:12;25.30;37.30
49222;DHT22;35047;37.588;-122.048;2023-11-21T00:16:41;25.20;37.20
49222;DHT22;35047;37.588;-122.048;2023-11-21T00:19:07;25.10;37.40
49222;DHT22;35047;37.588;-122.048;2023-11-21T00:21:34;25.10;37.50
49222;DHT22;35047;37.588;-122.048;2023-11-21T00:24:00;25.00;37.50
49222;DHT22;35047;37.588;-122.048;2023-11-21T00:26:26;24.90;37.50
49222;DHT22;35047;37.588;-122.048;2023-11-21T00:28:53;24.90;37.80
49222;DHT22;35047;37.588;-122.048;2023-11-21T00:31:20;24.90;37.60
49222;DHT22;35047;37.588;-122.048;2023-11-21T00:33:47;24.80;37.90
49222;DHT22;35047;37.588;-122.048;2023-11-21T00:36:13;24.80;38.20
49222;DHT22;35047;37.588;-122.048;2023-11-21T00:38:40;24.70;38.50
49222;DHT22;35047;37.588;-122.048;2023-11-21T00:41:06;24.60;38.50
49222;DHT22;35047;37.588;-122.048;2023-11-21T00:43:33;24.60;38.60
49222;DHT22;35047;37.588;-122.048;2023-11-21T00:45:59;24.50;39.20
49222;DHT22;35047;37.588;-122.048;2023-11-21T00:48:29;24.40;39.20
49222;DHT22;35047;37.588;-122.048;2023-11-21T00:50:56;24.30;39.50
49222;DHT22;35047;37.588;-122.048;2023-11-21T00:53:22;24.20;39.50
49222;DHT22;35047;37.588;-122.048;2023-11-21T00:55:49;24.20;39.40
49222;DHT22;35047;37.588;-122.048;2023-11-21T00:58:15;24.00;39.80
49222;DHT22;35047;37.588;-122.048;2023-11-21T01:00:42;24.00;40.00
49222;DHT22;35047;37.588;-122.048;2023-11-21T01:03:08;23.90;40.70
49222;DHT22;35047;37.588;-122.048;2023-11-21T01:05:35;23.80;40.60
49222;DHT22;35047;37.588;-122.048;2023-11-21T01:08:01;23.70;40.40
49222;DHT22;35047;37.588;-122.048;2023-11-21T01:10:28;23.60;41.00
49222;DHT22;35047;37.588;-122.048;2023-11-21T01:12:54;23.50;41.30
49222;DHT22;35047;37.588;-122.048;2023-11-21T01:15:21;23.40;42.00
49222;DHT22;35047;37.588;-122.048;2023-11-21T01:17:47;23.30;41.90
49222;DHT22;35047;37.588;-122.048;2023-11-21T01:20:14;23.20;42.00
49222;DHT22;35047;37.588;-122.048;2023-11-21T01:22:41;23.10;42.00
49222;DHT22;35047;37.588;-122.048;2023-11-21T01:25:08;23.00;42.20
49222;DHT22;35047;37.588;-122.048;2023-11-21T01:27:35;22.90;42.20
49222;DHT22;35047;37.588;-122.048;2023-11-21T01:30:02;22.80;42.30
49222;DHT22;35047;37.588;-122.048;2023-11-21T01:32:29;22.70;42.60
49222;DHT22;35047;37.588;-122.048;2023-11-21T01:34:56;22.60;42.20
49222;DHT22;35047;37.588;-122.048;2023-11-21T01:37:22;22.50;42.90
49222;DHT22;35047;37.588;-122.048;2023-11-21T01:39:49;22.50;43.00
49222;DHT22;35047;37.588;-122.048;2023-11-21T01:42:15;22.40;42.70
49222;DHT22;35047;37.588;-122.048;2023-11-21T01:44:42;22.30;43.20
49222;DHT22;35047;37.588;-122.048;2023-11-21T01:47:09;22.20;43.50
49222;DHT22;35047;37.588;-122.048;2023-11-21T01:49:36;22.10;44.00
49222;DHT22;35047;37.588;-122.048;2023-11-21T01:52:03;22.00;43.90
49222;DHT22;35047;37.588;-122.048;2023-11-21T01:54:30;22.00;44.80
49222;DHT22;35047;37.588;-122.048;2023-11-21T01:56:57;21.90;44.20
49222;DHT22;35047;37.588;-122.048;2023-11-21T01:59:35;21.80;44.60
49222;DHT22;35047;37.588;-122.048;2023-11-21T02:02:05;21.70;44.60
49222;DHT22;35047;37.588;-122.048;2023-11-21T02:04:36;21.60;44.80
49222;DHT22;35047;37.588;-122.048;2023-11-21T02:07:03;21.60;45.30
49222;DHT22;35047;37.588;-122.048;2023-11-21T02:09:33;21.50;45.30
49222;DHT22;35047;37.588;-122.048;2023-11-21T02:12:00;21.40;45.30
49222;DHT22;35047;37.588;-122.048;2023-11-21T02:14:27;21.30;45.50
49222;DHT22;35047;37.588;-122.048;2023-11-21T02:16:54;21.20;45.50
49222;DHT22;35047;37.588;-122.048;2023-11-21T02:19:23;21.20;45.80
49222;DHT22;35047;37.588;-122.048;2023-11-21T02:21:52;21.10;46.50
49222;DHT22;35047;37.588;-122.048;2023-11-21T02:24:22;21.00;46.50
49222;DHT22;35047;37.588;-122.048;2023-11-21T02:26:50;21.00;46.70
49222;DHT22;35047;37.588;-122.048;2023-11-21T02:29:20;20.90;47.00
49222;DHT22;35047;37.588;-122.048;2023-11-21T02:31:54;20.80;47.10
49222;DHT22;35047;37.588;-122.048;2023-11-21T02:34:22;20.70;47.60
49222;DHT22;35047;37.588;-122.048;2023-11-21T02:36:50;20.60;47.80
49222;DHT22;35047;37.588;-122.048;2023-11-21T02:39:18;20.60;48.40
49222;DHT22;35047;37.588;-122.048;2023-11-21T02:41:48;20.50;48.10
49222;DHT22;35047;37.588;-122.048;2023-11-21T02:44:14;20.40;48.70
49222;DHT22;35047;37.588;-122.048;2023-11-21T02:46:41;20.30;48.80
49222;DHT22;35047;37.588;-122.048;2023-11-21T02:49:07;20.30;48.90
49222;DHT22;35047;37.588;-122.048;2023-11-21T02:51:36;20.20;49.20
49222;DHT22;35047;37.588;-122.048;2023-11-21T02:54:04;20.10;49.40
49222;DHT22;35047;37.588;-122.048;2023-11-21T02:56:32;20.10;49.90
49222;DHT22;35047;37.588;-122.048;2023-11-21T02:59:00;19.90;49.80
49222;DHT22;35047;37.588;-122.048;2023-11-21T03:01:27;19.90;50.20
49222;DHT22;35047;37.588;-122.048;2023-11-21T03:03:54;19.80;50.60
49222;DHT22;35047;37.588;-122.048;2023-11-21T03:06:21;19.80;51.30
49222;DHT22;35047;37.588;-122.048;2023-11-21T03:08:48;19.70;51.40
49222;DHT22;35047;37.588;-122.048;2023-11-21T03:11:14;19.60;51.50
49222;DHT22;35047;37.588;-122.048;2023-11-21T03:13:41;19.60;51.80
49222;DHT22;35047;37.588;-122.048;2023-11-21T03:16:11;19.50;51.80
49222;DHT22;35047;37.588;-122.048;2023-11-21T03:18:39;19.40;52.00
49222;DHT22;35047;37.588;-122.048;2023-11-21T03:21:06;19.40;52.40
49222;DHT22;35047;37.588;-122.048;2023-11-21T03:23:36;19.20;52.20
49222;DHT22;35047;37.588;-122.048;2023-11-21T03:26:03;19.20;52.50
49222;DHT22;35047;37.588;-122.048;2023-11-21T03:28:30;19.20;53.10
49222;DHT22;35047;37.588;-122.048;2023-11-21T03:30:56;19.10;52.70
49222;DHT22;35047;37.588;-122.048;2023-11-21T03:33:23;19.10;53.40
49222;DHT22;35047;37.588;-122.048;2023-11-21T03:35:49;19.00;53.50
49222;DHT22;35047;37.588;-122.048;2023-11-21T03:38:16;19.00;53.70
49222;DHT22;35047;37.588;-122.048;2023-11-21T03:40:43;18.90;53.40
49222;DHT22;35047;37.588;-122.048;2023-11-21T03:43:09;18.80;53.20
49222;DHT22;35047;37.588;-122.048;2023-11-21T03:45:35;18.80;53.60
49222;DHT22;35047;37.588;-122.048;2023-11-21T03:48:02;18.70;53.70
49222;DHT22;35047;37.588;-122.048;2023-11-21T03:50:29;18.70;53.70
49222;DHT22;35047;37.588;-122.048;2023-11-21T03:52:55;18.70;54.30
49222;DHT22;35047;37.588;-122.048;2023-11-21T03:55:22;18.60;54.30
49222;DHT22;35047;37.588;-122.048;2023-11-21T03:57:51;18.50;54.30
49222;DHT22;35047;37.588;-122.048;2023-11-21T04:00:18;18.50;54.80
49222;DHT22;35047;37.588;-122.048;2023-11-21T04:02:46;18.50;54.80
49222;DHT22;35047;37.588;-122.048;2023-11-21T04:05:12;18.40;54.50
49222;DHT22;35047;37.588;-122.048;2023-11-21T04:07:39;18.40;54.80
49222;DHT22;35047;37.588;-122.048;2023-11-21T04:10:09;18.30;55.10
49222;DHT22;35047;37.588;-122.048;2023-11-21T04:12:36;18.30;55.00
49222;DHT22;35047;37.588;-122.048;2023-11-21T04:15:03;18.20;55.60
49222;DHT22;35047;37.588;-122.048;2023-11-21T04:17:29;18.20;55.50
49222;DHT22;35047;37.588;-122.048;2023-11-21T04:20:01;18.10;55.70
49222;DHT22;35047;37.588;-122.048;2023-11-21T04:22:40;18.10;55.60
49222;DHT22;35047;37.588;-122.048;2023-11-21T04:25:13;18.10;55.70
49222;DHT22;35047;37.588;-122.048;2023-11-21T04:27:42;18.00;55.90
49222;DHT22;35047;37.588;-122.048;2023-11-21T04:30:12;18.00;56.30
49222;DHT22;35047;37.588;-122.048;2023-11-21T04:32:39;17.90;56.60
49222;DHT22;35047;37.588;-122.048;2023-11-21T04:35:08;17.90;57.50
49222;DHT22;35047;37.588;-122.048;2023-11-21T04:37:34;17.80;56.90
49222;DHT22;35047;37.588;-122.048;2023-11-21T04:40:01;17.80;57.10
49222;DHT22;35047;37.588;-122.048;2023-11-21T04:42:30;17.80;57.00
49222;DHT22;35047;37.588;-122.048;2023-11-21T04:44:56;17.70;57.10
49222;DHT22;35047;37.588;-122.048;2023-11-21T04:47:23;17.70;57.60
49222;DHT22;35047;37.588;-122.048;2023-11-21T04:49:50;17.60;57.60
49222;DHT22;35047;37.588;-122.048;2023-11-21T04:52:19;17.60;58.00
49222;DHT22;35047;37.588;-122.048;2023-11-21T04:54:49;17.60;58.10
49222;DHT22;35047;37.588;-122.048;2023-11-21T04:57:15;17.50;58.00
49222;DHT22;35047;37.588;-122.048;2023-11-21T04:59:44;17.50;58.30
49222;DHT22;35047;37.588;-122.048;2023-11-21T05:02:10;17.40;58.20
49222;DHT22;35047;37.588;-122.048;2023-11-21T05:04:38;17.40;58.20
49222;DHT22;35047;37.588;-122.048;2023-11-21T05:07:04;17.40;58.00
49222;DHT22;35047;37.588;-122.048;2023-11-21T05:09:33;17.30;58.00
49222;DHT22;35047;37.588;-122.048;2023-11-21T05:12:01;17.20;58.20
49222;DHT22;35047;37.588;-122.048;2023-11-21T05:14:27;17.20;58.30
49222;DHT22;35047;37.588;-122.048;2023-11-21T05:16:54;17.20;58.80
49222;DHT22;35047;37.588;-122.048;2023-11-21T05:19:20;17.10;58.60
49222;DHT22;35047;37.588;-122.048;2023-11-21T05:21:47;17.10;58.50
49222;DHT22;35047;37.588;-122.048;2023-11-21T05:24:13;17.10;58.20
49222;DHT22;35047;37.588;-122.048;2023-11-21T05:26:40;17.00;58.30
49222;DHT22;35047;37.588;-122.048;2023-11-21T05:29:08;17.00;58.40
49222;DHT22;35047;37.588;-122.048;2023-11-21T05:31:37;17.00;58.60
49222;DHT22;35047;37.588;-122.048;2023-11-21T05:34:05;17.00;58.80
49222;DHT22;35047;37.588;-122.048;2023-11-21T05:36:33;16.90;59.00
49222;DHT22;35047;37.588;-122.048;2023-11-21T05:39:11;16.90;59.00
49222;DHT22;35047;37.588;-122.048;2023-11-21T05:41:40;16.80;59.20
49222;DHT22;35047;37.588;-122.048;2023-11-21T05:44:06;16.80;59.70
49222;DHT22;35047;37.588;-122.048;2023-11-21T05:46:32;16.80;59.90
49222;DHT22;35047;37.588;-122.048;2023-11-21T05:48:59;16.80;59.90
49222;DHT22;35047;37.588;-122.048;2023-11-21T05:51:25;16.70;59.80
49222;DHT22;35047;37.588;-122.048;2023-11-21T05:53:52;16.70;60.20
49222;DHT22;35047;37.588;-122.048;2023-11-21T05:56:23;16.60;60.40
49222;DHT22;35047;37.588;-122.048;2023-11-21T05:58:50;16.60;60.20
49222;DHT22;35047;37.588;-122.048;2023-11-21T06:01:17;16.60;60.30
49222;DHT22;35047;37.588;-122.048;2023-11-21T06:03:43;16.60;60.00
49222;DHT22;35047;37.588;-122.048;2023-11-21T06:06:11;16.50;60.50
49222;DHT22;35047;37.588;-122.048;2023-11-21T06:08:38;16.50;61.20
49222;DHT22;35047;37.588;-122.048;2023-11-21T06:11:05;16.40;61.20
49222;DHT22;35047;37.588;-122.048;2023-11-21T06:13:31;16.40;61.00
49222;DHT22;35047;37.588;-122.048;2023-11-21T06:15:57;16.40;61.30
49222;DHT22;35047;37.588;-122.048;2023-11-21T06:18:24;16.30;61.10
49222;DHT22;35047;37.588;-122.048;2023-11-21T06:20:53;16.30;61.20
49222;DHT22;35047;37.588;-122.048;2023-11-21T06:23:20;16.30;61.60
49222;DHT22;35047;37.588;-122.048;2023-11-21T06:25:46;16.20;61.50
49222;DHT22;35047;37.588;-122.048;2023-11-21T06:28:13;16.20;61.70
49222;DHT22;35047;37.588;-122.048;2023-11-21T06:30:44;16.10;61.40
49222;DHT22;35047;37.588;-122.048;2023-11-21T06:33:11;16.10;61.30
49222;DHT22;35047;37.588;-122.048;2023-11-21T06:35:37;16.10;61.30
49222;DHT22;35047;37.588;-122.048;2023-11-21T06:38:04;16.10;61.60
49222;DHT22;35047;37.588;-122.048;2023-11-21T06:40:30;16.00;61.80
49222;DHT22;35047;37.588;-122.048;2023-11-21T06:42:59;16.00;62.00
49222;DHT22;35047;37.588;-122.048;2023-11-21T06:45:26;16.00;62.40
49222;DHT22;35047;37.588;-122.048;2023-11-21T06:47:53;15.90;62.50
49222;DHT22;35047;37.588;-122.048;2023-11-21T06:50:19;15.90;62.70
49222;DHT22;35047;37.588;-122.048;2023-11-21T06:52:47;15.90;63.00
49222;DHT22;35047;37.588;-122.048;2023-11-21T06:55:14;15.90;63.20
49222;DHT22;35047;37.588;-122.048;2023-11-21T06:57:42;15.80;63.10
49222;DHT22;35047;37.588;-122.048;2023-11-21T07:00:09;15.80;62.80
49222;DHT22;35047;37.588;-122.048;2023-11-21T07:02:36;15.80;62.60
49222;DHT22;35047;37.588;-122.048;2023-11-21T07:05:02;15.70;62.60
49222;DHT22;35047;37.588;-122.048;2023-11-21T07:07:29;15.70;62.80
49222;DHT22;35047;37.588;-122.048;2023-11-21T07:09:55;15.70;63.30
49222;DHT22;35047;37.588;-122.048;2023-11-21T07:12:22;15.60;63.40
49222;DHT22;35047;37.588;-122.048;2023-11-21T07:14:51;15.60;63.30
49222;DHT22;35047;37.588;-122.048;2023-11-21T07:17:18;15.60;63.50
49222;DHT22;35047;37.588;-122.048;2023-11-21T07:19:45;15.60;63.60
49222;DHT22;35047;37.588;-122.048;2023-11-21T07:22:11;15.50;63.70
49222;DHT22;35047;37.588;-122.048;2023-11-21T07:24:39;15.50;63.60
49222;DHT22;35047;37.588;-122.048;2023-11-21T07:27:05;15.50;63.70
49222;DHT22;35047;37.588;-122.048;2023-11-21T07:29:31;15.40;63.40
49222;DHT22;35047;37.588;-122.048;2023-11-21T07:31:59;15.40;63.70
49222;DHT22;35047;37.588;-122.048;2023-11-21T07:34:26;15.40;64.00
49222;DHT22;35047;37.588;-122.048;2023-11-21T07:36:53;15.30;64.30
49222;DHT22;35047;37.588;-122.048;2023-11-21T07:39:19;15.30;64.10
49222;DHT22;35047;37.588;-122.048;2023-11-21T07:41:47;15.30;63.80
49222;DHT22;35047;37.588;-122.048;2023-11-21T07:44:15;15.30;64.10
49222;DHT22;35047;37.588;-122.048;2023-11-21T07:46:42;15.20;64.40
49222;DHT22;35047;37.588;-122.048;2023-11-21T07:49:10;15.20;64.80
49222;DHT22;35047;37.588;-122.048;2023-11-21T07:51:36;15.20;64.70
49222;DHT22;35047;37.588;-122.048;2023-11-21T07:54:03;15.10;64.80
49222;DHT22;35047;37.588;-122.048;2023-11-21T07:56:29;15.10;64.60
49222;DHT22;35047;37.588;-122.048;2023-11-21T07:58:56;15.10;63.80
49222;DHT22;35047;37.588;-122.048;2023-11-21T08:01:22;15.00;64.00
49222;DHT22;35047;37.588;-122.048;2023-11-21T08:03:49;15.00;64.30
49222;DHT22;35047;37.588;-122.048;2023-11-21T08:06:18;15.00;64.00
49222;DHT22;35047;37.588;-122.048;2023-11-21T08:08:44;14.90;64.10
49222;DHT22;35047;37.588;-122.048;2023-11-21T08:11:11;14.90;64.40
49222;DHT22;35047;37.588;-122.048;2023-11-21T08:13:38;14.90;64.50
49222;DHT22;35047;37.588;-122.048;2023-11-21T08:16:05;14.90;64.80
49222;DHT22;35047;37.588;-122.048;2023-11-21T08:18:33;14.90;64.70
49222;DHT22;35047;37.588;-122.048;2023-11-21T08:21:00;14.80;64.90
49222;DHT22;35047;37.588;-122.048;2023-11-21T08:23:26;14.80;64.80
49222;DHT22;35047;37.588;-122.048;2023-11-21T08:25:54;14.80;64.90
49222;DHT22;35047;37.588;-122.048;2023-11-21T08:28:21;14.70;64.90
49222;DHT22;35047;37.588;-122.048;2023-11-21T08:30:54;14.80;65.50
49222;DHT22;35047;37.588;-122.048;2023-11-21T08:33:21;14.70;65.50
49222;DHT22;35047;37.588;-122.048;2023-11-21T08:35:48;14.70;65.40
49222;DHT22;35047;37.588;-122.048;2023-11-21T08:38:14;14.70;65.70
49222;DHT22;35047;37.588;-122.048;2023-11-21T08:40:41;14.70;65.70
49222;DHT22;35047;37.588;-122.048;2023-11-21T08:43:07;14.60;65.80
49222;DHT22;35047;37.588;-122.048;2023-11-21T08:45:34;14.60;65.90
49222;DHT22;35047;37.588;-122.048;2023-11-21T08:48:01;14.60;65.70
49222;DHT22;35047;37.588;-122.048;2023-11-21T08:50:28;14.50;65.90
49222;DHT22;35047;37.588;-122.048;2023-11-21T08:52:54;14.50;66.10
49222;DHT22;35047;37.588;-122.048;2023-11-21T08:55:21;14.50;66.10
49222;DHT22;35047;37.588;-122.048;2023-11-21T08:57:48;14.50;66.30
49222;DHT22;35047;37.588;-122.048;2023-11-21T09:00:15;14.40;66.30
49222;DHT22;35047;37.588;-122.048;2023-11-21T09:02:43;14.50;66.60
49222;DHT22;35047;37.588;-122.048;2023-11-21T09:05:12;14.40;66.70
49222;DHT22;35047;37.588;-122.048;2023-11-21T09:07:40;14.40;66.90
49222;DHT22;35047;37.588;-122.048;2023-11-21T09:10:07;14.40;66.80
49222;DHT22;35047;37.588;-122.048;2023-11-21T09:12:36;14.40;66.90
49222;DHT22;35047;37.588;-122.048;2023-11-21T09:15:07;14.40;67.20
49222;DHT22;35047;37.588;-122.048;2023-11-21T09:17:35;14.40;67.30
49222;DHT22;35047;37.588;-122.048;2023-11-21T09:20:02;14.30;67.00
49222;DHT22;35047;37.588;-122.048;2023-11-21T09:22:31;14.30;66.80
49222;DHT22;35047;37.588;-122.048;2023-11-21T09:24:59;14.30;66.80
49222;DHT22;35047;37.588;-122.048;2023-11-21T09:27:25;14.20;66.70
49222;DHT22;35047;37.588;-122.048;2023-11-21T09:29:52;14.20;66.60
49222;DHT22;35047;37.588;-122.048;2023-11-21T09:32:20;14.20;66.70
49222;DHT22;35047;37.588;-122.048;2023-11-21T09:34:47;14.20;66.80
49222;DHT22;35047;37.588;-122.048;2023-11-21T09:37:14;14.10;67.30
49222;DHT22;35047;37.588;-122.048;2023-11-21T09:39:41;14.10;67.30
49222;DHT22;35047;37.588;-122.048;2023-11-21T09:45:11;14.00;67.00
49222;DHT22;35047;37.588;-122.048;2023-11-21T09:47:42;14.00;67.00
49222;DHT22;35047;37.588;-122.048;2023-11-21T09:50:09;14.00;67.10
49222;DHT22;35047;37.588;-122.048;2023-11-21T09:52:57;14.00;67.30
49222;DHT22;35047;37.588;-122.048;2023-11-21T09:55:27;14.00;67.40
49222;DHT22;35047;37.588;-122.048;2023-11-21T09:58:02;13.90;67.80
49222;DHT22;35047;37.588;-122.048;2023-11-21T10:00:30;13.90;67.50
49222;DHT22;35047;37.588;-122.048;2023-11-21T10:03:00;13.90;68.00
49222;DHT22;35047;37.588;-122.048;2023-11-21T10:05:28;13.90;68.10
49222;DHT22;35047;37.588;-122.048;2023-11-21T10:07:56;13.90;68.20
49222;DHT22;35047;37.588;-122.048;2023-11-21T10:10:26;13.80;68.20
49222;DHT22;35047;37.588;-122.048;2023-11-21T10:13:02;13.80;68.20
49222;DHT22;35047;37.588;-122.048;2023-11-21T10:15:34;13.90;68.50
49222;DHT22;35047;37.588;-122.048;2023-11-21T10:18:04;13.80;69.00
49222;DHT22;35047;37.588;-122.048;2023-11-21T10:20:33;13.80;67.90
49222;DHT22;35047;37.588;-122.048;2023-11-21T10:23:00;13.80;67.80
49222;DHT22;35047;37.588;-122.048;2023-11-21T10:25:33;13.70;67.50
49222;DHT22;35047;37.588;-122.048;2023-11-21T10:28:02;13.70;67.80
49222;DHT22;35047;37.588;-122.048;2023-11-21T10:30:38;13.70;68.00
49222;DHT22;35047;37.588;-122.048;2023-11-21T10:33:06;13.70;68.40
49222;DHT22;35047;37.588;-122.048;2023-11-21T10:35:47;13.70;68.60
49222;DHT22;35047;37.588;-122.048;2023-11-21T10:38:17;13.60;68.20
49222;DHT22;35047;37.588;-122.048;2023-11-21T10:40:44;13.60;68.20
49222;DHT22;35047;37.588;-122.048;2023-11-21T10:43:13;13.60;68.30
49222;DHT22;35047;37.588;-122.048;2023-11-21T10:45:41;13.60;68.60
49222;DHT22;35047;37.588;-122.048;2023-11-21T10:48:13;13.60;68.30
49222;DHT22;35047;37.588;-122.048;2023-11-21T10:50:46;13.50;68.20
49222;DHT22;35047;37.588;-122.048;2023-11-21T10:53:12;13.50;68.70
49222;DHT22;35047;37.588;-122.048;2023-11-21T10:55:39;13.50;68.90
49222;DHT22;35047;37.588;-122.048;2023-11-21T10:58:06;13.50;69.00
49222;DHT22;35047;37.588;-122.048;2023-11-21T11:00:33;13.50;69.00
49222;DHT22;35047;37.588;-122.048;2023-11-21T11:03:00;13.40;69.10
49222;DHT22;35047;37.588;-122.048;2023-11-21T11:05:29;13.40;69.10
49222;DHT22;35047;37.588;-122.048;2023-11-21T11:08:08;13.40;68.90
49222;DHT22;35047;37.588;-122.048;2023-11-21T11:10:38;13.40;69.20
49222;DHT22;35047;37.588;-122.048;2023-11-21T11:13:06;13.40;68.90
49222;DHT22;35047;37.588;-122.048;2023-11-21T11:15:33;13.40;69.20
49222;DHT22;35047;37.588;-122.048;2023-11-21T11:18:00;13.30;69.40
49222;DHT22;35047;37.588;-122.048;2023-11-21T11:20:37;13.40;69.30
49222;DHT22;35047;37.588;-122.048;2023-11-21T11:23:23;13.30;69.40
49222;DHT22;35047;37.588;-122.048;2023-11-21T11:26:07;13.30;69.50
49222;DHT22;35047;37.588;-122.048;2023-11-21T11:28:47;13.30;69.50
49222;DHT22;35047;37.588;-122.048;2023-11-21T11:31:37;13.20;69.50
49222;DHT22;35047;37.588;-122.048;2023-11-21T11:34:22;13.20;68.90
49222;DHT22;35047;37.588;-122.048;2023-11-21T11:37:05;13.20;69.00
49222;DHT22;35047;37.588;-122.048;2023-11-21T11:39:42;13.20;69.30
49222;DHT22;35047;37.588;-122.048;2023-11-21T11:42:13;13.20;69.50
49222;DHT22;35047;37.588;-122.048;2023-11-21T11:47:16;13.10;69.80
49222;DHT22;35047;37.588;-122.048;2023-11-21T11:52:54;13.10;70.30
49222;DHT22;35047;37.588;-122.048;2023-11-21T11:55:24;13.10;70.40
49222;DHT22;35047;37.588;-122.048;2023-11-21T11:57:53;13.10;69.90
49222;DHT22;35047;37.588;-122.048;2023-11-21T12:02:57;13.00;70.00
49222;DHT22;35047;37.588;-122.048;2023-11-21T12:05:26;13.00;70.30
49222;DHT22;35047;37.588;-122.048;2023-11-21T12:08:01;13.00;70.30
49222;DHT22;35047;37.588;-122.048;2023-11-21T12:10:29;13.00;70.40
49222;DHT22;35047;37.588;-122.048;2023-11-21T12:13:05;13.00;70.50
49222;DHT22;35047;37.588;-122.048;2023-11-21T12:15:34;13.00;70.40
49222;DHT22;35047;37.588;-122.048;2023-11-21T12:18:02;13.00;71.20
49222;DHT22;35047;37.588;-122.048;2023-11-21T12:20:29;13.00;70.70
49222;DHT22;35047;37.588;-122.048;2023-11-21T12:22:59;13.00;70.80
49222;DHT22;35047;37.588;-122.048;2023-11-21T12:25:30;13.00;70.80
49222;DHT22;35047;37.588;-122.048;2023-11-21T12:28:01;13.00;70.90
49222;DHT22;35047;37.588;-122.048;2023-11-21T12:30:29;13.00;70.90
49222;DHT22;35047;37.588;-122.048;2023-11-21T12:32:59;13.00;71.10
49222;DHT22;35047;37.588;-122.048;2023-11-21T12:35:27;13.00;70.80
49222;DHT22;35047;37.588;-122.048;2023-11-21T12:37:54;12.90;70.80
49222;DHT22;35047;37.588;-122.048;2023-11-21T12:40:23;12.90;70.90
49222;DHT22;35047;37.588;-122.048;2023-11-21T12:42:53;12.90;71.00
49222;DHT22;35047;37.588;-122.048;2023-11-21T12:45:22;12.90;71.00
49222;DHT22;35047;37.588;-122.048;2023-11-21T12:47:56;12.90;71.10
49222;DHT22;35047;37.588;-122.048;2023-11-21T12:50:26;12.90;71.40
49222;DHT22;35047;37.588;-122.048;2023-11-21T12:53:05;12.90;72.10
49222;DHT22;35047;37.588;-122.048;2023-11-21T12:55:35;12.90;71.70
49222;DHT22;35047;37.588;-122.048;2023-11-21T12:58:09;12.90;71.90
49222;DHT22;35047;37.588;-122.048;2023-11-21T13:00:47;12.90;71.40
49222;DHT22;35047;37.588;-122.048;2023-11-21T13:03:15;12.80;71.20
49222;DHT22;35047;37.588;-122.048;2023-11-21T13:05:52;12.80;71.40
49222;DHT22;35047;37.588;-122.048;2023-11-21T13:08:24;12.80;71.50
49222;DHT22;35047;37.588;-122.048;2023-11-21T13:10:55;12.80;71.50
49222;DHT22;35047;37.588;-122.048;2023-11-21T13:13:23;12.80;71.40
49222;DHT22;35047;37.588;-122.048;2023-11-21T13:15:52;12.80;71.50
49222;DHT22;35047;37.588;-122.048;2023-11-21T13:18:26;12.80;71.40
49222;DHT22;35047;37.588;-122.048;2023-11-21T13:20:56;12.80;71.50
49222;DHT22;35047;37.588;-122.048;2023-11-21T13:23:24;12.80;71.50
49222;DHT22;35047;37.588;-122.048;2023-11-21T13:25:51;12.70;71.10
49222;DHT22;35047;37.588;-122.048;2023-11-21T13:28:18;12.70;71.30
49222;DHT22;35047;37.588;-122.048;2023-11-21T13:30:47;12.70;71.30
49222;DHT22;35047;37.588;-122.048;2023-11-21T13:33:14;12.70;71.50
49222;DHT22;35047;37.588;-122.048;2023-11-21T13:35:52;12.80;71.50
49222;DHT22;35047;37.588;-122.048;2023-11-21T13:38:19;12.70;71.60
49222;DHT22;35047;37.588;-122.048;2023-11-21T13:40:50;12.70;71.80
49222;DHT22;35047;37.588;-122.048;2023-11-21T13:43:20;12.70;71.60
49222;DHT22;35047;37.588;-122.048;2023-11-21T13:45:49;12.70;71.70
49222;DHT22;35047;37.588;-122.048;2023-11-21T13:48:38;12.70;71.50
49222;DHT22;35047;37.588;-122.048;2023-11-21T13:51:12;12.70;71.50
49222;DHT22;35047;37.588;-122.048;2023-11-21T13:53:45;12.70;71.50
49222;DHT22;35047;37.588;-122.048;2023-11-21T13:56:14;12.70;71.40
49222;DHT22;35047;37.588;-122.048;2023-11-21T13:58:45;12.70;71.30
49222;DHT22;35047;37.588;-122.048;2023-11-21T14:01:18;12.60;72.10
49222;DHT22;35047;37.588;-122.048;2023-11-21T14:04:05;12.70;71.50
49222;DHT22;35047;37.588;-122.048;2023-11-21T14:06:49;12.70;71.60
49222;DHT22;35047;37.588;-122.048;2023-11-21T14:09:22;12.70;71.70
49222;DHT22;35047;37.588;-122.048;2023-11-21T14:11:54;12.60;71.80
49222;DHT22;35047;37.588;-122.048;2023-11-21T14:14:24;12.70;72.70
49222;DHT22;35047;37.588;-122.048;2023-11-21T14:16:52;12.60;72.10
49222;DHT22;35047;37.588;-122.048;2023-11-21T14:19:19;12.60;72.00
49222;DHT22;35047;37.588;-122.048;2023-11-21T14:21:46;12.60;72.10
49222;DHT22;35047;37.588;-122.048;2023-11-21T14:24:15;12.60;72.10
49222;DHT22;35047;37.588;-122.048;2023-11-21T14:26:45;12.60;72.20
49222;DHT22;35047;37.588;-122.048;2023-11-21T14:29:13;12.60;72.10
49222;DHT22;35047;37.588;-122.048;2023-11-21T14:31:42;12.60;72.20
49222;DHT22;35047;37.588;-122.048;2023-11-21T14:34:09;12.60;72.40
49222;DHT22;35047;37.588;-122.048;2023-11-21T14:36:38;12.60;72.10
49222;DHT22;35047;37.588;-122.048;2023-11-21T14:39:07;12.60;71.90
49222;DHT22;35047;37.588;-122.048;2023-11-21T14:41:39;12.50;71.80
49222;DHT22;35047;37.588;-122.048;2023-11-21T14:44:05;12.60;72.70
49222;DHT22;35047;37.588;-122.048;2023-11-21T14:46:38;12.60;72.70
49222;DHT22;35047;37.588;-122.048;2023-11-21T14:49:06;12.60;72.70
49222;DHT22;35047;37.588;-122.048;2023-11-21T14:51:51;12.60;73.00
49222;DHT22;35047;37.588;-122.048;2023-11-21T14:54:32;12.60;73.00
49222;DHT22;35047;37.588;-122.048;2023-11-21T14:57:11;12.60;73.00
49222;DHT22;35047;37.588;-122.048;2023-11-21T14:59:47;12.60;73.40
49222;DHT22;35047;37.588;-122.048;2023-11-21T15:02:23;12.60;73.60
49222;DHT22;35047;37.588;-122.048;2023-11-21T15:05:22;12.60;73.60
49222;DHT22;35047;37.588;-122.048;2023-11-21T15:07:49;12.60;73.20
49222;DHT22;35047;37.588;-122.048;2023-11-21T15:10:20;12.70;73.80